Time;durP1;ratioP1;P1;durP2;ratioP2;P2;SDS_P1;SDS_P2;PMS_P1;PMS_P2;Temp;Humidity;BMP_temperature;BMP_pressure;BME280_temperature;BME280_humidity;BME280_pressure;Samples;Min_cycle;Max_cycle;Signal;HPM_P1;HPM_P2
2022/11/11 00:02:33;;;;;;;;;;;;;;;;;;5040972;28;19927;-80
2022/11/11 00:05:20;;;;;;;;;;;;;;;;;;5041244;28;19929;-82
2022/11/11 00:08:06;;;;;;;;;;;;;;;;;;5043398;28;19932;-80
2022/11/11 00:10:52;;;;;;;;;;;;;;;;;;5044462;28;19932;-81
2022/11/11 00:13:43;;;;;;;;;;;;;;;;;;5049312;28;19962;-81
2022/11/11 00:25:42;;;;;;;;;;;;;;;;;;5043827;28;19932;-80
2022/11/11 00:28:28;;;;;;;;;;;;;;;;;;5035314;28;19932;-80
2022/11/11 00:31:15;;;;;;;;;;;;;;;;;;5042659;28;19932;-81
2022/11/11 00:34:06;;;;;;;;;;;;;;;;;;5052478;28;20312;-80
2022/11/11 00:36:56;;;;;;;;;;;;;;;;;;5050780;28;19928;-82
2022/11/11 00:39:43;;;;;;;;;;;;;;;;;;5047279;28;20395;-80
2022/11/11 00:42:29;;;;;;;;;;;;;;;;;;5045393;28;19928;-80
2022/11/11 00:45:20;;;;;;;;;;;;;;;;;;5049933;28;19928;-80
2022/11/11 00:51:11;;;;;;;;;;;;;;;;;;5043448;28;19928;-80
2022/11/11 00:53:57;;;;;;;;;;;;;;;;;;5039180;28;19951;-81
2022/11/11 00:56:49;;;;;;;;;;;;;;;;;;5051616;28;20281;-80
2022/11/11 00:59:40;;;;;;;;;;;;;;;;;;5039316;28;20294;-80
2022/11/11 01:02:31;;;;;;;;;;;;;;;;;;5051389;28;19927;-81
2022/11/11 01:05:17;;;;;;;;;;;;;;;;;;5039264;28;20305;-81
2022/11/11 01:08:03;;;;;;;;;;;;;;;;;;5042142;28;19928;-80
2022/11/11 01:10:49;;;;;;;;;;;;;;;;;;5041417;28;19931;-81
2022/11/11 01:13:35;;;;;;;;;;;;;;;;;;5033096;28;19932;-80
2022/11/11 01:16:21;;;;;;;;;;;;;;;;;;5036085;28;20293;-81
2022/11/11 01:19:12;;;;;;;;;;;;;;;;;;5043795;28;19933;-80
2022/11/11 01:21:58;;;;;;;;;;;;;;;;;;5045143;28;20301;-81
2022/11/11 01:24:44;;;;;;;;;;;;;;;;;;5048446;28;19933;-80
2022/11/11 01:27:31;;;;;;;;;;;;;;;;;;5041898;28;19928;-80
2022/11/11 01:30:17;;;;;;;;;;;;;;;;;;5036877;28;19928;-80
2022/11/11 01:33:08;;;;;;;;;;;;;;;;;;5046840;28;19998;-81
2022/11/11 01:35:59;;;;;;;;;;;;;;;;;;5056244;28;19927;-80
2022/11/11 01:38:45;;;;;;;;;;;;;;;;;;5049540;28;20312;-80
2022/11/11 01:41:35;;;;;;;;;;;;;;;;;;5036813;28;19928;-80
2022/11/11 01:44:21;;;;;;;;;;;;;;;;;;5051192;28;19928;-82
2022/11/11 01:47:07;;;;;;;;;;;;;;;;;;5052869;28;19927;-80
2022/11/11 01:49:52;;;;;;;;;;;;;;;;;;5046233;28;19928;-82
2022/11/11 01:52:38;;;;;;;;;;;;;;;;;;5052167;28;19932;-79
2022/11/11 01:55:29;;;;;;;;;;;;;;;;;;5051157;28;19927;-80
2022/11/11 01:58:15;;;;;;;;;;;;;;;;;;5050260;28;19932;-80
2022/11/11 02:01:06;;;;;;;;;;;;;;;;;;5056709;28;19943;-80
2022/11/11 02:06:53;;;;;;;;;;;;;;;;;;5042875;28;19928;-80
2022/11/11 02:09:39;;;;;;;;;;;;;;;;;;5041912;28;19927;-80
2022/11/11 02:15:29;;;;;;;;;;;;;;;;;;5046120;28;20685;-80
2022/11/11 02:18:15;;;;;;;;;;;;;;;;;;5043248;28;19936;-80
2022/11/11 02:21:01;;;;;;;;;;;;;;;;;;5044514;28;19928;-81
2022/11/11 02:23:47;;;;;;;;;;;;;;;;;;5046766;28;19928;-80
2022/11/11 02:26:38;;;;;;;;;;;;;;;;;;5053727;28;19931;-79
2022/11/11 02:29:24;;;;;;;;;;;;;;;;;;5044362;28;20542;-80
2022/11/11 02:32:10;;;;;;;;;;;;;;;;;;5041961;28;20305;-79
2022/11/11 02:35:01;;;;;;;;;;;;;;;;;;5051020;28;20396;-80
2022/11/11 02:37:53;;;;;;;;;;;;;;;;;;5048475;28;19944;-80
2022/11/11 02:41:55;;;;;;;;;;;;;;;;;;5051161;28;19928;-81
2022/11/11 02:43:50;;;;;;;;;;;;;;;;;;5047967;28;19932;-81
2022/11/11 02:46:36;;;;;;;;;;;;;;;;;;5052295;28;19932;-80
2022/11/11 02:49:22;;;;;;;;;;;;;;;;;;5044300;28;19927;-80
2022/11/11 02:52:08;;;;;;;;;;;;;;;;;;5052169;28;19991;-80
2022/11/11 02:54:54;;;;;;;;;;;;;;;;;;5051275;28;20397;-81
2022/11/11 02:57:40;;;;;;;;;;;;;;;;;;5035055;28;20372;-79
2022/11/11 03:00:26;;;;;;;;;;;;;;;;;;5034675;28;19931;-80
2022/11/11 03:03:12;;;;;;;;;;;;;;;;;;5043620;28;20022;-80
2022/11/11 03:06:03;;;;;;;;;;;;;;;;;;5055321;28;19936;-80
2022/11/11 03:08:49;;;;;;;;;;;;;;;;;;5048351;28;20285;-80
2022/11/11 03:11:40;;;;;;;;;;;;;;;;;;5051666;28;19928;-81
2022/11/11 03:14:26;;;;;;;;;;;;;;;;;;5037780;28;19932;-79
2022/11/11 03:23:25;;;;;;;;;;;;;;;;;;5048282;28;19932;-82
2022/11/11 03:26:11;;;;;;;;;;;;;;;;;;5045719;28;19932;-80
2022/11/11 03:29:02;;;;;;;;;;;;;;;;;;5046274;28;19928;-80
2022/11/11 03:31:48;;;;;;;;;;;;;;;;;;5043477;28;19928;-80
2022/11/11 03:34:34;;;;;;;;;;;;;;;;;;5042855;28;19967;-80
2022/11/11 03:40:29;;;;;;;;;;;;;;;;;;5044062;28;20384;-80
2022/11/11 03:43:15;;;;;;;;;;;;;;;;;;5040243;28;20674;-80
2022/11/11 03:46:01;;;;;;;;;;;;;;;;;;5041897;28;19932;-80
2022/11/11 03:48:52;;;;;;;;;;;;;;;;;;5039465;28;19928;-80
2022/11/11 03:51:38;;;;;;;;;;;;;;;;;;5048402;28;19928;-81
2022/11/11 03:54:24;;;;;;;;;;;;;;;;;;5044833;28;19932;-79
2022/11/11 03:57:31;;;;;;;;;;;;;;;;;;5038904;28;19947;-81
2022/11/11 04:00:22;;;;;;;;;;;;;;;;;;5048272;28;19932;-80
2022/11/11 04:12:25;;;;;;;;;;;;;;;;;;5049344;28;19928;-80
2022/11/11 04:21:44;;;;;;;;;;;;;;;;;;5035662;28;20669;-80
2022/11/11 04:27:35;;;;;;;;;;;;;;;;;;5038488;28;19936;-81
2022/11/11 04:30:20;;;;;;;;;;;;;;;;;;5033432;28;19928;-79
2022/11/11 04:33:06;;;;;;;;;;;;;;;;;;5042021;28;19928;-80
2022/11/11 04:35:52;;;;;;;;;;;;;;;;;;5035562;28;19936;-81
2022/11/11 04:41:47;;;;;;;;;;;;;;;;;;5044864;28;19992;-80
2022/11/11 04:47:41;;;;;;;;;;;;;;;;;;5051094;28;20388;-81
2022/11/11 04:50:27;;;;;;;;;;;;;;;;;;5048517;28;19931;-81
2022/11/11 04:53:13;;;;;;;;;;;;;;;;;;5033193;28;19932;-81
2022/11/11 04:59:16;;;;;;;;;;;;;;;;;;5049234;28;19928;-82
2022/11/11 05:05:06;;;;;;;;;;;;;;;;;;5053817;28;19928;-80
2022/11/11 05:11:01;;;;;;;;;;;;;;;;;;5043617;28;19928;-80
2022/11/11 05:23:00;;;;;;;;;;;;;;;;;;5036926;28;19928;-81
2022/11/11 05:25:45;;;;;;;;;;;;;;;;;;5036871;28;20396;-81
2022/11/11 05:28:31;;;;;;;;;;;;;;;;;;5036602;28;19928;-79
2022/11/11 05:31:17;;;;;;;;;;;;;;;;;;5050896;28;19931;-80
2022/11/11 05:34:03;;;;;;;;;;;;;;;;;;5043562;28;19928;-80
2022/11/11 05:36:49;;;;;;;;;;;;;;;;;;5047187;28;19943;-81
2022/11/11 05:39:35;;;;;;;;;;;;;;;;;;5046283;28;19928;-80
2022/11/11 05:42:21;;;;;;;;;;;;;;;;;;5051789;28;19927;-80
2022/11/11 05:45:12;;;;;;;;;;;;;;;;;;5053703;28;19978;-81
2022/11/11 05:48:04;;;;;;;;;;;;;;;;;;5053222;28;19944;-81
2022/11/11 05:50:50;;;;;;;;;;;;;;;;;;5049923;28;19931;-81
2022/11/11 05:53:35;;;;;;;;;;;;;;;;;;5043620;28;19928;-81
2022/11/11 05:56:26;;;;;;;;;;;;;;;;;;5050349;28;20395;-80
2022/11/11 05:59:13;;;;;;;;;;;;;;;;;;5049853;28;19928;-81
2022/11/11 06:01:58;;;;;;;;;;;;;;;;;;5042950;28;20297;-80
2022/11/11 06:04:45;;;;;;;;;;;;;;;;;;5043051;28;19944;-80
2022/11/11 06:07:31;;;;;;;;;;;;;;;;;;5049071;28;20388;-80
2022/11/11 06:10:32;;;;;;;;;;;;;;;;;;5042629;28;19928;-80
2022/11/11 06:13:24;;;;;;;;;;;;;;;;;;5051868;28;19928;-81
2022/11/11 06:16:14;;;;;;;;;;;;;;;;;;5056280;28;19928;-81
2022/11/11 06:19:02;;;;;;;;;;;;;;;;;;5044910;28;19932;-81
2022/11/11 06:21:57;;;;;;;;;;;;;;;;;;5050560;28;19928;-80
2022/11/11 06:26:11;;;;;;;;;;;;;;;;;;5043887;28;19928;-80
2022/11/11 06:27:49;;;;;;;;;;;;;;;;;;5044998;28;19947;-80
2022/11/11 06:30:36;;;;;;;;;;;;;;;;;;5046960;28;19932;-81
2022/11/11 06:33:22;;;;;;;;;;;;;;;;;;5050433;28;19936;-82
2022/11/11 06:36:09;;;;;;;;;;;;;;;;;;5042920;28;19932;-79
2022/11/11 06:38:55;;;;;;;;;;;;;;;;;;5039716;28;19928;-80
2022/11/11 06:41:46;;;;;;;;;;;;;;;;;;5050973;28;19943;-80
2022/11/11 06:44:32;;;;;;;;;;;;;;;;;;5044583;28;19928;-81
2022/11/11 06:47:18;;;;;;;;;;;;;;;;;;5044610;28;19936;-81
2022/11/11 06:50:04;;;;;;;;;;;;;;;;;;5045717;28;20452;-80
2022/11/11 06:52:55;;;;;;;;;;;;;;;;;;5053521;28;19935;-80
2022/11/11 06:55:46;;;;;;;;;;;;;;;;;;5050287;28;19931;-80
2022/11/11 06:58:32;;;;;;;;;;;;;;;;;;5043372;28;19928;-80
2022/11/11 07:01:18;;;;;;;;;;;;;;;;;;5046548;28;20392;-80
2022/11/11 07:04:09;;;;;;;;;;;;;;;;;;5049812;28;19932;-80
2022/11/11 07:06:55;;;;;;;;;;;;;;;;;;5044438;28;19927;-80
2022/11/11 07:09:46;;;;;;;;;;;;;;;;;;5053243;28;19928;-80
2022/11/11 07:12:32;;;;;;;;;;;;;;;;;;5043061;28;19927;-80
2022/11/11 07:15:23;;;;;;;;;;;;;;;;;;5055577;28;19928;-80
2022/11/11 07:18:09;;;;;;;;;;;;;;;;;;5051457;28;19932;-81
2022/11/11 07:20:55;;;;;;;;;;;;;;;;;;5046454;28;19928;-80
2022/11/11 07:23:41;;;;;;;;;;;;;;;;;;5045799;28;20379;-79
2022/11/11 07:26:27;;;;;;;;;;;;;;;;;;5041988;28;19932;-80
2022/11/11 07:29:14;;;;;;;;;;;;;;;;;;5045386;28;19932;-80
2022/11/11 07:32:00;;;;;;;;;;;;;;;;;;5047997;28;19928;-81
2022/11/11 07:34:51;;;;;;;;;;;;;;;;;;5049526;28;19936;-80
2022/11/11 07:37:37;;;;;;;;;;;;;;;;;;5038064;28;19928;-82
2022/11/11 07:40:23;;;;;;;;;;;;;;;;;;5044324;28;19927;-81
2022/11/11 07:43:09;;;;;;;;;;;;;;;;;;5045443;28;19947;-82
2022/11/11 07:46:00;;;;;;;;;;;;;;;;;;5051145;28;19928;-82
2022/11/11 07:48:51;;;;;;;;;;;;;;;;;;5054455;28;19931;-80
2022/11/11 07:51:38;;;;;;;;;;;;;;;;;;5042341;28;19932;-81
2022/11/11 07:54:24;;;;;;;;;;;;;;;;;;5045583;28;19928;-81
2022/11/11 07:57:10;;;;;;;;;;;;;;;;;;5042705;28;19928;-81
2022/11/11 07:59:56;;;;;;;;;;;;;;;;;;5035959;28;20293;-82
2022/11/11 08:02:47;;;;;;;;;;;;;;;;;;5049232;28;19929;-81
2022/11/11 08:05:38;;;;;;;;;;;;;;;;;;5050570;28;19936;-82
2022/11/11 08:08:26;;;;;;;;;;;;;;;;;;5046014;28;19928;-81
2022/11/11 08:11:12;;;;;;;;;;;;;;;;;;5041953;28;20277;-80
2022/11/11 08:13:57;;;;;;;;;;;;;;;;;;5043267;28;19927;-81
2022/11/11 08:16:43;;;;;;;;;;;;;;;;;;5046076;28;19928;-84
2022/11/11 08:19:34;;;;;;;;;;;;;;;;;;5049887;28;19932;-82
2022/11/11 08:22:20;;;;;;;;;;;;;;;;;;5050739;28;19928;-81
2022/11/11 08:25:12;;;;;;;;;;;;;;;;;;5006312;28;19935;-83
2022/11/11 08:27:58;;;;;;;;;;;;;;;;;;5045264;28;19932;-81
2022/11/11 08:30:49;;;;;;;;;;;;;;;;;;5042813;28;19959;-85
2022/11/11 08:33:36;;;;;;;;;;;;;;;;;;5035277;28;19928;-84
2022/11/11 08:36:23;;;;;;;;;;;;;;;;;;5036434;28;19932;-82
2022/11/11 08:39:10;;;;;;;;;;;;;;;;;;5034791;28;19936;-84
2022/11/11 08:42:01;;;;;;;;;;;;;;;;;;5039919;28;19955;-85
2022/11/11 08:44:47;;;;;;;;;;;;;;;;;;5035701;28;19928;-86
2022/11/11 08:47:39;;;;;;;;;;;;;;;;;;5040115;28;19947;-83
2022/11/11 08:50:25;;;;;;;;;;;;;;;;;;5034777;28;19936;-86
2022/11/11 08:53:16;;;;;;;;;;;;;;;;;;5041220;28;19939;-85
2022/11/11 08:56:02;;;;;;;;;;;;;;;;;;5033055;28;19963;-82
2022/11/11 08:58:53;;;;;;;;;;;;;;;;;;5037439;28;20403;-83
2022/11/11 09:01:45;;;;;;;;;;;;;;;;;;5042646;28;19936;-82
2022/11/11 09:04:31;;;;;;;;;;;;;;;;;;5042329;28;19935;-84
2022/11/11 09:07:17;;;;;;;;;;;;;;;;;;5033796;28;19936;-81
2022/11/11 09:10:03;;;;;;;;;;;;;;;;;;5031946;28;19928;-86
2022/11/11 09:12:49;;;;;;;;;;;;;;;;;;5032536;28;20392;-87
2022/11/11 09:15:35;;;;;;;;;;;;;;;;;;5029320;28;19935;-86
2022/11/11 09:18:21;;;;;;;;;;;;;;;;;;5033558;28;19928;-82
2022/11/11 09:21:07;;;;;;;;;;;;;;;;;;5032031;28;19936;-83
2022/11/11 09:23:54;;;;;;;;;;;;;;;;;;5006892;28;19935;-85
2022/11/11 09:26:45;;;;;;;;;;;;;;;;;;5042701;28;19936;-85
2022/11/11 09:29:31;;;;;;;;;;;;;;;;;;5036248;28;19935;-83
2022/11/11 09:32:17;;;;;;;;;;;;;;;;;;5032452;28;20404;-80
2022/11/11 09:35:08;;;;;;;;;;;;;;;;;;5045202;28;20295;-84
2022/11/11 09:37:54;;;;;;;;;;;;;;;;;;5037425;28;19935;-83
2022/11/11 09:40:40;;;;;;;;;;;;;;;;;;5033976;28;20708;-86
2022/11/11 09:43:26;;;;;;;;;;;;;;;;;;5034845;28;19943;-84
2022/11/11 09:46:12;;;;;;;;;;;;;;;;;;5039711;28;20615;-86
2022/11/11 09:48:58;;;;;;;;;;;;;;;;;;5035672;28;19939;-85
2022/11/11 09:51:50;;;;;;;;;;;;;;;;;;5043703;28;19951;-85
2022/11/11 09:54:41;;;;;;;;;;;;;;;;;;5043220;28;20007;-82
2022/11/11 09:57:32;;;;;;;;;;;;;;;;;;5043531;28;19936;-85
2022/11/11 10:00:23;;;;;;;;;;;;;;;;;;5045868;28;19928;-84
2022/11/11 10:03:09;;;;;;;;;;;;;;;;;;5039692;28;21333;-82
2022/11/11 10:05:56;;;;;;;;;;;;;;;;;;5032308;28;20392;-84
2022/11/11 10:08:42;;;;;;;;;;;;;;;;;;5033362;28;19936;-83
2022/11/11 10:11:28;;;;;;;;;;;;;;;;;;5034632;28;20011;-81
2022/11/11 10:14:14;;;;;;;;;;;;;;;;;;5038264;28;19928;-84
2022/11/11 10:17:05;;;;;;;;;;;;;;;;;;5038106;28;21155;-85
2022/11/11 10:19:51;;;;;;;;;;;;;;;;;;5036622;28;19931;-83
2022/11/11 10:22:37;;;;;;;;;;;;;;;;;;5037228;28;19936;-84
2022/11/11 10:25:29;;;;;;;;;;;;;;;;;;5006343;28;19951;-85
2022/11/11 10:28:15;;;;;;;;;;;;;;;;;;5031979;28;19951;-82
2022/11/11 10:31:06;;;;;;;;;;;;;;;;;;5043581;28;19936;-82
2022/11/11 10:33:52;;;;;;;;;;;;;;;;;;5031791;28;20026;-82
2022/11/11 10:36:43;;;;;;;;;;;;;;;;;;5039475;28;19936;-84
2022/11/11 10:39:29;;;;;;;;;;;;;;;;;;5031827;28;19936;-84
2022/11/11 10:42:16;;;;;;;;;;;;;;;;;;5036485;28;19928;-85
2022/11/11 10:45:03;;;;;;;;;;;;;;;;;;5036303;28;20729;-84
2022/11/11 10:47:49;;;;;;;;;;;;;;;;;;5033462;28;20055;-86
2022/11/11 10:50:35;;;;;;;;;;;;;;;;;;5033070;28;20336;-85
2022/11/11 10:53:21;;;;;;;;;;;;;;;;;;5030083;28;20872;-84
2022/11/11 10:56:07;;;;;;;;;;;;;;;;;;5035033;28;19939;-84
2022/11/11 10:58:59;;;;;;;;;;;;;;;;;;5039971;28;19961;-82
2022/11/11 11:01:50;;;;;;;;;;;;;;;;;;5039997;28;19936;-85
2022/11/11 11:04:41;;;;;;;;;;;;;;;;;;5034642;28;19937;-84
2022/11/11 11:07:27;;;;;;;;;;;;;;;;;;5030984;28;20710;-84
2022/11/11 11:10:18;;;;;;;;;;;;;;;;;;5041062;28;19935;-83
2022/11/11 11:13:09;;;;;;;;;;;;;;;;;;5047226;28;21577;-86
2022/11/11 11:15:55;;;;;;;;;;;;;;;;;;5035008;28;19928;-83
2022/11/11 11:18:43;;;;;;;;;;;;;;;;;;5029056;28;20296;-83
2022/11/11 11:21:31;;;;;;;;;;;;;;;;;;5029568;28;19935;-82
2022/11/11 11:24:18;;;;;;;;;;;;;;;;;;5010538;28;19948;-86
2022/11/11 11:27:05;;;;;;;;;;;;;;;;;;5035489;28;19951;-82
2022/11/11 11:29:52;;;;;;;;;;;;;;;;;;5031320;28;19951;-84
2022/11/11 11:32:43;;;;;;;;;;;;;;;;;;5039779;28;19927;-81
2022/11/11 11:35:29;;;;;;;;;;;;;;;;;;5033422;28;20620;-85
2022/11/11 11:38:21;;;;;;;;;;;;;;;;;;5041154;28;20314;-81
2022/11/11 11:41:07;;;;;;;;;;;;;;;;;;5034815;28;19939;-83
2022/11/11 11:43:58;;;;;;;;;;;;;;;;;;5034938;28;19936;-84
2022/11/11 11:46:50;;;;;;;;;;;;;;;;;;5041029;28;19950;-85
2022/11/11 11:49:36;;;;;;;;;;;;;;;;;;5033627;28;19959;-83
2022/11/11 11:52:22;;;;;;;;;;;;;;;;;;5030682;28;19963;-82
2022/11/11 11:55:08;;;;;;;;;;;;;;;;;;5039198;28;20585;-86
2022/11/11 11:57:55;;;;;;;;;;;;;;;;;;5033091;28;19948;-84
2022/11/11 12:00:41;;;;;;;;;;;;;;;;;;5036234;28;20296;-85
2022/11/11 12:03:28;;;;;;;;;;;;;;;;;;5031904;28;19936;-82
2022/11/11 12:06:14;;;;;;;;;;;;;;;;;;5035618;28;19936;-83
2022/11/11 12:09:05;;;;;;;;;;;;;;;;;;5029570;28;19936;-82
2022/11/11 12:11:51;;;;;;;;;;;;;;;;;;5029822;28;19935;-84
2022/11/11 12:14:43;;;;;;;;;;;;;;;;;;5036689;28;19950;-83
2022/11/11 12:17:34;;;;;;;;;;;;;;;;;;5035136;28;20317;-82
2022/11/11 12:20:20;;;;;;;;;;;;;;;;;;5035450;28;19939;-84
2022/11/11 12:23:06;;;;;;;;;;;;;;;;;;5038533;28;19928;-84
2022/11/11 12:25:52;;;;;;;;;;;;;;;;;;5010361;28;19935;-84
2022/11/11 12:28:39;;;;;;;;;;;;;;;;;;5036111;28;19928;-83
2022/11/11 12:31:25;;;;;;;;;;;;;;;;;;5030078;28;19939;-84
2022/11/11 12:34:11;;;;;;;;;;;;;;;;;;5036044;28;20495;-84
2022/11/11 12:36:57;;;;;;;;;;;;;;;;;;5036272;28;19936;-84
2022/11/11 12:39:43;;;;;;;;;;;;;;;;;;5039305;28;20503;-84
2022/11/11 12:42:34;;;;;;;;;;;;;;;;;;5038288;28;19936;-84
2022/11/11 12:45:20;;;;;;;;;;;;;;;;;;5032835;28;19944;-82
2022/11/11 12:48:11;;;;;;;;;;;;;;;;;;5035789;28;19936;-81
2022/11/11 12:50:57;;;;;;;;;;;;;;;;;;5030521;28;19935;-82
2022/11/11 12:53:44;;;;;;;;;;;;;;;;;;5033522;28;19936;-84
2022/11/11 12:56:35;;;;;;;;;;;;;;;;;;5036393;28;19936;-83
2022/11/11 12:59:21;;;;;;;;;;;;;;;;;;5029703;28;19928;-84
2022/11/11 13:02:08;;;;;;;;;;;;;;;;;;5027801;28;19936;-85
2022/11/11 13:04:54;;;;;;;;;;;;;;;;;;5027728;28;19932;-85
2022/11/11 13:07:41;;;;;;;;;;;;;;;;;;5029256;28;20448;-82
2022/11/11 13:10:27;;;;;;;;;;;;;;;;;;5039320;28;20616;-82
2022/11/11 13:13:18;;;;;;;;;;;;;;;;;;5041260;28;19936;-84
2022/11/11 13:16:10;;;;;;;;;;;;;;;;;;5028199;28;19932;-83
2022/11/11 13:18:56;;;;;;;;;;;;;;;;;;5034076;28;21312;-82
2022/11/11 13:21:42;;;;;;;;;;;;;;;;;;5032756;28;19928;-83
2022/11/11 13:24:33;;;;;;;;;;;;;;;;;;5012615;28;21213;-82
2022/11/11 13:27:20;;;;;;;;;;;;;;;;;;5035494;28;19936;-85
2022/11/11 13:30:06;;;;;;;;;;;;;;;;;;5035658;28;20572;-82
2022/11/11 13:32:57;;;;;;;;;;;;;;;;;;5037197;28;19940;-86
2022/11/11 13:35:44;;;;;;;;;;;;;;;;;;5036070;28;19939;-85
2022/11/11 13:38:30;;;;;;;;;;;;;;;;;;5032757;28;20599;-83
2022/11/11 13:41:16;;;;;;;;;;;;;;;;;;5031228;28;20593;-83
2022/11/11 13:44:02;;;;;;;;;;;;;;;;;;5034014;28;19947;-85
2022/11/11 13:46:48;;;;;;;;;;;;;;;;;;5033790;28;19935;-83
2022/11/11 13:49:34;;;;;;;;;;;;;;;;;;5038627;28;19959;-85
2022/11/11 13:52:21;;;;;;;;;;;;;;;;;;5038319;28;19936;-83
2022/11/11 13:55:07;;;;;;;;;;;;;;;;;;5039681;28;19928;-86
2022/11/11 13:57:58;;;;;;;;;;;;;;;;;;5045607;28;19940;-83
2022/11/11 14:00:44;;;;;;;;;;;;;;;;;;5034688;28;19935;-82
2022/11/11 14:03:30;;;;;;;;;;;;;;;;;;5045342;28;19928;-82
2022/11/11 14:06:21;;;;;;;;;;;;;;;;;;5043349;28;19932;-85
2022/11/11 14:09:07;;;;;;;;;;;;;;;;;;5037527;28;19935;-83
2022/11/11 14:11:59;;;;;;;;;;;;;;;;;;5048770;28;19935;-84
2022/11/11 14:14:45;;;;;;;;;;;;;;;;;;5037143;28;19936;-86
2022/11/11 14:17:31;;;;;;;;;;;;;;;;;;5037631;28;19935;-83
2022/11/11 14:20:17;;;;;;;;;;;;;;;;;;5034573;28;19932;-81
2022/11/11 14:23:03;;;;;;;;;;;;;;;;;;5033641;28;19935;-83
2022/11/11 14:25:54;;;;;;;;;;;;;;;;;;5011299;28;19935;-82
2022/11/11 14:28:41;;;;;;;;;;;;;;;;;;5030981;28;19935;-84
2022/11/11 14:31:27;;;;;;;;;;;;;;;;;;5031134;28;19959;-85
2022/11/11 14:34:13;;;;;;;;;;;;;;;;;;5035195;28;19971;-86
2022/11/11 14:36:59;;;;;;;;;;;;;;;;;;5041254;28;21296;-82
2022/11/11 14:39:45;;;;;;;;;;;;;;;;;;5038186;28;20940;-83
2022/11/11 14:42:31;;;;;;;;;;;;;;;;;;5038555;28;19932;-83
2022/11/11 14:45:17;;;;;;;;;;;;;;;;;;5032134;28;19935;-82
2022/11/11 14:48:03;;;;;;;;;;;;;;;;;;5037660;28;19935;-81
2022/11/11 14:50:49;;;;;;;;;;;;;;;;;;5041543;28;19928;-85
2022/11/11 14:53:40;;;;;;;;;;;;;;;;;;5041476;28;19939;-85
2022/11/11 14:56:26;;;;;;;;;;;;;;;;;;5039297;28;19928;-81
2022/11/11 14:59:13;;;;;;;;;;;;;;;;;;5031666;28;19940;-83
2022/11/11 15:02:05;;;;;;;;;;;;;;;;;;5042307;28;19936;-85
2022/11/11 15:04:50;;;;;;;;;;;;;;;;;;5031063;28;19999;-83
2022/11/11 15:07:37;;;;;;;;;;;;;;;;;;5033272;28;19936;-86
2022/11/11 15:10:28;;;;;;;;;;;;;;;;;;5031255;28;19936;-85
2022/11/11 15:13:19;;;;;;;;;;;;;;;;;;5040952;28;19936;-84
2022/11/11 15:16:05;;;;;;;;;;;;;;;;;;5038641;28;20046;-84
2022/11/11 15:18:56;;;;;;;;;;;;;;;;;;5041184;28;19935;-86
2022/11/11 15:21:42;;;;;;;;;;;;;;;;;;5033852;28;19944;-84
2022/11/11 15:24:28;;;;;;;;;;;;;;;;;;5007225;28;20514;-83
2022/11/11 15:27:19;;;;;;;;;;;;;;;;;;5041704;28;19936;-84
2022/11/11 15:30:06;;;;;;;;;;;;;;;;;;5036320;28;19948;-87
2022/11/11 15:32:52;;;;;;;;;;;;;;;;;;5033009;28;20752;-86
2022/11/11 15:35:38;;;;;;;;;;;;;;;;;;5030201;28;20971;-88
2022/11/11 15:38:24;;;;;;;;;;;;;;;;;;5035036;28;19936;-86
2022/11/11 15:41:10;;;;;;;;;;;;;;;;;;5031795;28;19948;-84
2022/11/11 15:43:56;;;;;;;;;;;;;;;;;;5039906;28;19943;-86
2022/11/11 15:46:43;;;;;;;;;;;;;;;;;;5027308;28;19994;-89
2022/11/11 15:49:29;;;;;;;;;;;;;;;;;;5036343;28;19952;-83
2022/11/11 15:52:20;;;;;;;;;;;;;;;;;;5039996;28;19939;-84
2022/11/11 15:55:11;;;;;;;;;;;;;;;;;;5041493;28;19928;-84
2022/11/11 15:57:57;;;;;;;;;;;;;;;;;;5038587;28;19928;-82
2022/11/11 16:00:43;;;;;;;;;;;;;;;;;;5043893;28;19943;-83
2022/11/11 16:03:29;;;;;;;;;;;;;;;;;;5050153;28;19927;-82
2022/11/11 16:06:20;;;;;;;;;;;;;;;;;;5055962;28;19932;-82
2022/11/11 16:09:11;;;;;;;;;;;;;;;;;;5048079;28;20273;-81
2022/11/11 16:12:02;;;;;;;;;;;;;;;;;;5052138;28;19932;-81
2022/11/11 16:14:48;;;;;;;;;;;;;;;;;;5041194;28;19928;-80
2022/11/11 16:17:34;;;;;;;;;;;;;;;;;;5054130;28;19927;-80
2022/11/11 16:20:20;;;;;;;;;;;;;;;;;;5046772;28;19948;-83
2022/11/11 16:23:12;;;;;;;;;;;;;;;;;;5049106;28;19928;-83
2022/11/11 16:25:57;;;;;;;;;;;;;;;;;;5044139;28;20296;-82
2022/11/11 16:28:49;;;;;;;;;;;;;;;;;;5043814;28;19928;-83
2022/11/11 16:31:40;;;;;;;;;;;;;;;;;;5047398;28;19927;-83
2022/11/11 16:34:26;;;;;;;;;;;;;;;;;;5052362;28;19932;-86
2022/11/11 16:37:14;;;;;;;;;;;;;;;;;;5048005;28;19931;-84
2022/11/11 16:40:05;;;;;;;;;;;;;;;;;;5050601;28;20287;-84
2022/11/11 16:42:52;;;;;;;;;;;;;;;;;;5043990;28;19928;-83
2022/11/11 16:45:44;;;;;;;;;;;;;;;;;;5050701;28;19932;-86
2022/11/11 16:48:30;;;;;;;;;;;;;;;;;;5046293;28;19928;-83
2022/11/11 16:51:16;;;;;;;;;;;;;;;;;;5044638;28;19932;-83
2022/11/11 16:54:02;;;;;;;;;;;;;;;;;;5046254;28;19928;-82
2022/11/11 16:56:48;;;;;;;;;;;;;;;;;;5048680;28;19948;-81
2022/11/11 16:59:34;;;;;;;;;;;;;;;;;;5043803;28;19928;-87
2022/11/11 17:02:20;;;;;;;;;;;;;;;;;;5042154;28;20293;-82
2022/11/11 17:05:11;;;;;;;;;;;;;;;;;;5054359;28;20389;-81
2022/11/11 17:07:57;;;;;;;;;;;;;;;;;;5048367;28;20721;-82
2022/11/11 17:10:43;;;;;;;;;;;;;;;;;;5042189;28;20273;-81
2022/11/11 17:13:34;;;;;;;;;;;;;;;;;;5048069;28;19928;-81
2022/11/11 17:16:20;;;;;;;;;;;;;;;;;;5051604;28;20415;-82
2022/11/11 17:19:11;;;;;;;;;;;;;;;;;;5045256;28;19932;-82
2022/11/11 17:22:02;;;;;;;;;;;;;;;;;;5054745;28;19943;-80
2022/11/11 17:24:48;;;;;;;;;;;;;;;;;;5044852;28;19928;-81
2022/11/11 17:27:40;;;;;;;;;;;;;;;;;;5055763;28;19928;-82
2022/11/11 17:30:27;;;;;;;;;;;;;;;;;;5047660;28;19936;-81
2022/11/11 17:33:13;;;;;;;;;;;;;;;;;;5050569;28;19928;-81
2022/11/11 17:36:00;;;;;;;;;;;;;;;;;;5028492;28;20484;-87
2022/11/11 17:38:46;;;;;;;;;;;;;;;;;;5033700;28;19931;-83
2022/11/11 17:41:32;;;;;;;;;;;;;;;;;;5029561;28;20015;-85
2022/11/11 17:44:18;;;;;;;;;;;;;;;;;;5034729;28;19939;-88
2022/11/11 17:47:04;;;;;;;;;;;;;;;;;;5028991;28;19939;-87
2022/11/11 17:49:50;;;;;;;;;;;;;;;;;;5032270;28;19937;-84
2022/11/11 17:52:37;;;;;;;;;;;;;;;;;;5026883;28;19939;-84
2022/11/11 17:55:28;;;;;;;;;;;;;;;;;;5036090;28;19935;-82
2022/11/11 17:58:19;;;;;;;;;;;;;;;;;;5040206;28;19939;-86
2022/11/11 18:01:06;;;;;;;;;;;;;;;;;;5031268;28;19936;-86
2022/11/11 18:03:52;;;;;;;;;;;;;;;;;;5032685;28;19936;-84
2022/11/11 18:06:43;;;;;;;;;;;;;;;;;;5035789;28;19991;-82
2022/11/11 18:09:29;;;;;;;;;;;;;;;;;;5034437;28;20298;-88
2022/11/11 18:12:15;;;;;;;;;;;;;;;;;;5038183;28;19940;-83
2022/11/11 18:15:07;;;;;;;;;;;;;;;;;;5040859;28;19951;-82
2022/11/11 18:17:58;;;;;;;;;;;;;;;;;;5045237;28;20403;-84
2022/11/11 18:20:44;;;;;;;;;;;;;;;;;;5037809;28;21277;-87
2022/11/11 18:23:30;;;;;;;;;;;;;;;;;;5032262;28;19943;-86
2022/11/11 18:26:21;;;;;;;;;;;;;;;;;;5035864;28;19935;-87
2022/11/11 18:29:08;;;;;;;;;;;;;;;;;;5033462;28;19935;-86
2022/11/11 18:31:54;;;;;;;;;;;;;;;;;;5038451;28;20694;-83
2022/11/11 18:34:45;;;;;;;;;;;;;;;;;;5041606;28;19935;-86
2022/11/11 18:37:37;;;;;;;;;;;;;;;;;;5037886;28;19936;-86
2022/11/11 18:40:23;;;;;;;;;;;;;;;;;;5037990;28;19935;-85
2022/11/11 18:43:09;;;;;;;;;;;;;;;;;;5033667;28;21292;-83
2022/11/11 18:45:55;;;;;;;;;;;;;;;;;;5038398;28;19936;-87
2022/11/11 18:48:46;;;;;;;;;;;;;;;;;;5032385;28;20403;-86
2022/11/11 18:51:33;;;;;;;;;;;;;;;;;;5033473;28;20443;-87
2022/11/11 18:54:24;;;;;;;;;;;;;;;;;;5042623;28;19943;-87
2022/11/11 18:57:15;;;;;;;;;;;;;;;;;;5040553;28;19936;-82
2022/11/11 19:00:01;;;;;;;;;;;;;;;;;;5029874;28;19999;-85
2022/11/11 19:02:52;;;;;;;;;;;;;;;;;;5037240;28;19935;-84
2022/11/11 19:05:39;;;;;;;;;;;;;;;;;;5028115;28;19936;-87
2022/11/11 19:08:24;;;;;;;;;;;;;;;;;;5030995;28;19952;-87
2022/11/11 19:11:10;;;;;;;;;;;;;;;;;;5029327;28;19959;-86
2022/11/11 19:14:02;;;;;;;;;;;;;;;;;;5038248;28;20777;-84
2022/11/11 19:16:53;;;;;;;;;;;;;;;;;;5037804;28;20403;-86
2022/11/11 19:19:44;;;;;;;;;;;;;;;;;;5036498;28;19936;-88
2022/11/11 19:22:30;;;;;;;;;;;;;;;;;;5034211;28;19940;-82
2022/11/11 19:25:16;;;;;;;;;;;;;;;;;;5033273;28;19935;-82
2022/11/11 19:28:07;;;;;;;;;;;;;;;;;;5034006;28;19939;-87
2022/11/11 19:30:54;;;;;;;;;;;;;;;;;;5029715;28;19936;-86
2022/11/11 19:33:45;;;;;;;;;;;;;;;;;;5035495;28;20618;-85
2022/11/11 19:36:36;;;;;;;;;;;;;;;;;;5045236;28;19951;-86
2022/11/11 19:39:23;;;;;;;;;;;;;;;;;;5032169;28;20616;-81
2022/11/11 19:42:09;;;;;;;;;;;;;;;;;;5030704;28;19935;-86
2022/11/11 19:44:56;;;;;;;;;;;;;;;;;;5037136;28;19939;-85
2022/11/11 19:47:47;;;;;;;;;;;;;;;;;;5035818;28;20627;-87
2022/11/11 19:50:34;;;;;;;;;;;;;;;;;;5034751;28;19936;-85
2022/11/11 19:53:20;;;;;;;;;;;;;;;;;;5032584;28;19935;-86
2022/11/11 19:56:12;;;;;;;;;;;;;;;;;;5030760;28;19936;-86
2022/11/11 19:59:03;;;;;;;;;;;;;;;;;;5036684;28;20770;-84
2022/11/11 20:01:50;;;;;;;;;;;;;;;;;;5029227;28;19963;-86
2022/11/11 20:04:36;;;;;;;;;;;;;;;;;;5036464;28;19928;-81
2022/11/11 20:07:30;;;;;;;;;;;;;;;;;;5034300;28;19939;-84
2022/11/11 20:10:21;;;;;;;;;;;;;;;;;;5040044;28;19928;-82
2022/11/11 20:13:07;;;;;;;;;;;;;;;;;;5029721;28;19931;-82
2022/11/11 20:15:53;;;;;;;;;;;;;;;;;;5032351;28;19935;-88
2022/11/11 20:18:39;;;;;;;;;;;;;;;;;;5035721;28;19932;-87